sensor_id;sensor_type;location;lat;lon;timestamp;P1;durP1;ratioP1;P2;durP2;ratioP2
47155;SDS011;32908;52.344;16.858;2023-07-09T00:00:26;7.60;;;4.40;;
47155;SDS011;32908;52.344;16.858;2023-07-09T00:03:17;7.30;;;4.60;;
47155;SDS011;32908;52.344;16.858;2023-07-09T00:05:48;6.00;;;4.30;;
47155;SDS011;32908;52.344;16.858;2023-07-09T00:08:28;5.40;;;4.40;;
47155;SDS011;32908;52.344;16.858;2023-07-09T00:11:01;7.20;;;4.10;;
47155;SDS011;32908;52.344;16.858;2023-07-09T00:13:32;4.90;;;3.80;;
47155;SDS011;32908;52.344;16.858;2023-07-09T00:16:07;7.80;;;5.20;;
47155;SDS011;32908;52.344;16.858;2023-07-09T00:18:41;6.70;;;3.80;;
47155;SDS011;32908;52.344;16.858;2023-07-09T00:21:12;5.60;;;4.10;;
47155;SDS011;32908;52.344;16.858;2023-07-09T00:23:43;5.20;;;4.00;;
47155;SDS011;32908;52.344;16.858;2023-07-09T00:26:17;6.00;;;4.30;;
47155;SDS011;32908;52.344;16.858;2023-07-09T00:28:50;10.70;;;3.90;;
47155;SDS011;32908;52.344;16.858;2023-07-09T00:31:21;6.70;;;4.70;;
47155;SDS011;32908;52.344;16.858;2023-07-09T00:33:52;6.30;;;4.70;;
47155;SDS011;32908;52.344;16.858;2023-07-09T00:36:25;8.40;;;5.00;;
47155;SDS011;32908;52.344;16.858;2023-07-09T00:38:59;8.30;;;4.10;;
47155;SDS011;32908;52.344;16.858;2023-07-09T00:41:33;5.80;;;4.40;;
47155;SDS011;32908;52.344;16.858;2023-07-09T00:44:18;5.30;;;4.10;;
47155;SDS011;32908;52.344;16.858;2023-07-09T00:49:47;7.10;;;5.10;;
47155;SDS011;32908;52.344;16.858;2023-07-09T00:52:31;5.00;;;4.20;;
47155;SDS011;32908;52.344;16.858;2023-07-09T00:55:05;7.70;;;4.40;;
47155;SDS011;32908;52.344;16.858;2023-07-09T00:57:37;7.50;;;4.30;;
47155;SDS011;32908;52.344;16.858;2023-07-09T01:00:11;8.40;;;4.30;;
47155;SDS011;32908;52.344;16.858;2023-07-09T01:02:43;6.10;;;4.10;;
47155;SDS011;32908;52.344;16.858;2023-07-09T01:05:16;4.60;;;4.10;;
47155;SDS011;32908;52.344;16.858;2023-07-09T01:07:47;4.90;;;3.80;;
47155;SDS011;32908;52.344;16.858;2023-07-09T01:10:18;6.10;;;4.40;;
47155;SDS011;32908;52.344;16.858;2023-07-09T01:12:49;6.10;;;4.30;;
47155;SDS011;32908;52.344;16.858;2023-07-09T01:15:20;5.20;;;3.90;;
47155;SDS011;32908;52.344;16.858;2023-07-09T01:17:51;7.00;;;4.60;;
47155;SDS011;32908;52.344;16.858;2023-07-09T01:20:22;6.50;;;4.70;;
47155;SDS011;32908;52.344;16.858;2023-07-09T01:22:53;5.70;;;4.50;;
47155;SDS011;32908;52.344;16.858;2023-07-09T01:25:24;7.30;;;4.50;;
47155;SDS011;32908;52.344;16.858;2023-07-09T01:27:55;7.00;;;4.50;;
47155;SDS011;32908;52.344;16.858;2023-07-09T01:30:27;7.00;;;4.20;;
47155;SDS011;32908;52.344;16.858;2023-07-09T01:33:01;8.90;;;4.70;;
47155;SDS011;32908;52.344;16.858;2023-07-09T01:35:34;6.90;;;4.60;;
47155;SDS011;32908;52.344;16.858;2023-07-09T01:38:09;6.20;;;4.60;;
47155;SDS011;32908;52.344;16.858;2023-07-09T01:40:40;8.20;;;4.40;;
47155;SDS011;32908;52.344;16.858;2023-07-09T01:43:11;5.60;;;4.10;;
47155;SDS011;32908;52.344;16.858;2023-07-09T01:45:41;6.80;;;4.20;;
47155;SDS011;32908;52.344;16.858;2023-07-09T01:48:18;5.60;;;4.20;;
47155;SDS011;32908;52.344;16.858;2023-07-09T01:50:48;5.90;;;4.50;;
47155;SDS011;32908;52.344;16.858;2023-07-09T01:53:21;7.20;;;4.40;;
47155;SDS011;32908;52.344;16.858;2023-07-09T01:55:52;5.70;;;5.10;;
47155;SDS011;32908;52.344;16.858;2023-07-09T01:58:23;6.30;;;4.70;;
47155;SDS011;32908;52.344;16.858;2023-07-09T02:00:59;8.70;;;4.80;;
47155;SDS011;32908;52.344;16.858;2023-07-09T02:03:30;6.40;;;4.30;;
47155;SDS011;32908;52.344;16.858;2023-07-09T02:06:01;7.00;;;5.30;;
47155;SDS011;32908;52.344;16.858;2023-07-09T02:08:36;8.80;;;4.90;;
47155;SDS011;32908;52.344;16.858;2023-07-09T02:11:07;5.90;;;4.80;;
47155;SDS011;32908;52.344;16.858;2023-07-09T02:13:38;7.20;;;4.40;;
47155;SDS011;32908;52.344;16.858;2023-07-09T02:16:08;6.10;;;4.50;;
47155;SDS011;32908;52.344;16.858;2023-07-09T02:18:39;6.00;;;4.40;;
47155;SDS011;32908;52.344;16.858;2023-07-09T02:21:10;6.80;;;4.70;;
47155;SDS011;32908;52.344;16.858;2023-07-09T02:23:41;6.40;;;4.40;;
47155;SDS011;32908;52.344;16.858;2023-07-09T02:26:12;8.50;;;4.60;;
47155;SDS011;32908;52.344;16.858;2023-07-09T02:28:42;5.80;;;4.80;;
47155;SDS011;32908;52.344;16.858;2023-07-09T02:31:13;8.90;;;4.70;;
47155;SDS011;32908;52.344;16.858;2023-07-09T02:33:43;6.30;;;4.60;;
47155;SDS011;32908;52.344;16.858;2023-07-09T02:36:14;6.80;;;4.80;;
47155;SDS011;32908;52.344;16.858;2023-07-09T02:38:45;5.40;;;4.90;;
47155;SDS011;32908;52.344;16.858;2023-07-09T02:41:16;7.50;;;4.60;;
47155;SDS011;32908;52.344;16.858;2023-07-09T02:43:47;6.30;;;4.70;;
47155;SDS011;32908;52.344;16.858;2023-07-09T02:46:18;7.30;;;5.10;;
47155;SDS011;32908;52.344;16.858;2023-07-09T02:48:49;9.70;;;4.80;;
47155;SDS011;32908;52.344;16.858;2023-07-09T02:51:19;7.40;;;4.70;;
47155;SDS011;32908;52.344;16.858;2023-07-09T02:53:50;9.20;;;4.80;;
47155;SDS011;32908;52.344;16.858;2023-07-09T02:56:22;9.10;;;4.90;;
47155;SDS011;32908;52.344;16.858;2023-07-09T02:58:53;7.60;;;4.60;;
47155;SDS011;32908;52.344;16.858;2023-07-09T03:01:24;8.40;;;4.30;;
47155;SDS011;32908;52.344;16.858;2023-07-09T03:03:55;7.80;;;4.60;;
47155;SDS011;32908;52.344;16.858;2023-07-09T03:06:27;6.60;;;4.90;;
47155;SDS011;32908;52.344;16.858;2023-07-09T03:09:01;7.80;;;5.30;;
47155;SDS011;32908;52.344;16.858;2023-07-09T03:11:32;7.80;;;5.00;;
47155;SDS011;32908;52.344;16.858;2023-07-09T03:14:03;11.40;;;4.90;;
47155;SDS011;32908;52.344;16.858;2023-07-09T03:16:34;7.30;;;5.20;;
47155;SDS011;32908;52.344;16.858;2023-07-09T03:19:05;8.10;;;5.60;;
47155;SDS011;32908;52.344;16.858;2023-07-09T03:21:36;6.70;;;4.60;;
47155;SDS011;32908;52.344;16.858;2023-07-09T03:24:07;6.20;;;4.80;;
47155;SDS011;32908;52.344;16.858;2023-07-09T03:26:38;6.00;;;5.10;;
47155;SDS011;32908;52.344;16.858;2023-07-09T03:29:09;8.60;;;5.00;;
47155;SDS011;32908;52.344;16.858;2023-07-09T03:31:40;7.30;;;4.70;;
47155;SDS011;32908;52.344;16.858;2023-07-09T03:34:11;9.40;;;4.50;;
47155;SDS011;32908;52.344;16.858;2023-07-09T03:36:41;7.00;;;4.80;;
47155;SDS011;32908;52.344;16.858;2023-07-09T03:39:12;6.70;;;5.20;;
47155;SDS011;32908;52.344;16.858;2023-07-09T03:41:43;9.50;;;5.10;;
47155;SDS011;32908;52.344;16.858;2023-07-09T03:44:14;6.90;;;5.00;;
47155;SDS011;32908;52.344;16.858;2023-07-09T03:46:45;7.40;;;5.00;;
47155;SDS011;32908;52.344;16.858;2023-07-09T03:49:16;8.50;;;5.30;;
47155;SDS011;32908;52.344;16.858;2023-07-09T03:51:46;6.70;;;4.80;;
47155;SDS011;32908;52.344;16.858;2023-07-09T03:54:17;8.10;;;4.80;;
47155;SDS011;32908;52.344;16.858;2023-07-09T03:56:48;7.90;;;4.90;;
47155;SDS011;32908;52.344;16.858;2023-07-09T03:59:19;6.40;;;5.00;;
47155;SDS011;32908;52.344;16.858;2023-07-09T04:01:50;6.80;;;4.90;;
47155;SDS011;32908;52.344;16.858;2023-07-09T04:04:21;10.70;;;4.90;;
47155;SDS011;32908;52.344;16.858;2023-07-09T04:06:51;6.50;;;5.40;;
47155;SDS011;32908;52.344;16.858;2023-07-09T04:09:22;8.80;;;4.30;;
47155;SDS011;32908;52.344;16.858;2023-07-09T04:11:53;5.10;;;4.50;;
47155;SDS011;32908;52.344;16.858;2023-07-09T04:14:24;6.90;;;4.80;;
47155;SDS011;32908;52.344;16.858;2023-07-09T04:16:55;5.70;;;4.40;;
47155;SDS011;32908;52.344;16.858;2023-07-09T04:19:26;6.00;;;4.70;;
47155;SDS011;32908;52.344;16.858;2023-07-09T04:21:57;5.60;;;4.30;;
47155;SDS011;32908;52.344;16.858;2023-07-09T04:24:27;6.00;;;4.70;;
47155;SDS011;32908;52.344;16.858;2023-07-09T04:26:59;6.10;;;4.50;;
47155;SDS011;32908;52.344;16.858;2023-07-09T04:29:30;7.70;;;4.70;;
47155;SDS011;32908;52.344;16.858;2023-07-09T04:32:03;8.10;;;4.90;;
47155;SDS011;32908;52.344;16.858;2023-07-09T04:34:35;6.30;;;4.70;;
47155;SDS011;32908;52.344;16.858;2023-07-09T04:37:07;6.60;;;4.70;;
47155;SDS011;32908;52.344;16.858;2023-07-09T04:39:39;8.80;;;4.60;;
47155;SDS011;32908;52.344;16.858;2023-07-09T04:42:11;6.80;;;4.40;;
47155;SDS011;32908;52.344;16.858;2023-07-09T04:44:43;5.20;;;4.70;;
47155;SDS011;32908;52.344;16.858;2023-07-09T04:47:14;6.20;;;4.80;;
47155;SDS011;32908;52.344;16.858;2023-07-09T04:49:45;7.40;;;4.50;;
47155;SDS011;32908;52.344;16.858;2023-07-09T04:52:16;8.00;;;5.20;;
47155;SDS011;32908;52.344;16.858;2023-07-09T04:54:47;6.40;;;4.60;;
47155;SDS011;32908;52.344;16.858;2023-07-09T04:57:18;6.40;;;4.70;;
47155;SDS011;32908;52.344;16.858;2023-07-09T04:59:49;5.50;;;4.20;;
47155;SDS011;32908;52.344;16.858;2023-07-09T05:02:19;8.80;;;4.40;;
47155;SDS011;32908;52.344;16.858;2023-07-09T05:04:50;5.10;;;4.30;;
47155;SDS011;32908;52.344;16.858;2023-07-09T05:07:22;9.50;;;5.30;;
47155;SDS011;32908;52.344;16.858;2023-07-09T05:09:52;6.80;;;4.40;;
47155;SDS011;32908;52.344;16.858;2023-07-09T05:12:25;5.60;;;4.50;;
47155;SDS011;32908;52.344;16.858;2023-07-09T05:14:57;9.60;;;4.70;;
47155;SDS011;32908;52.344;16.858;2023-07-09T05:17:28;7.00;;;4.60;;
47155;SDS011;32908;52.344;16.858;2023-07-09T05:19:59;9.80;;;4.00;;
47155;SDS011;32908;52.344;16.858;2023-07-09T05:22:29;6.90;;;4.70;;
47155;SDS011;32908;52.344;16.858;2023-07-09T05:25:00;5.20;;;4.10;;
47155;SDS011;32908;52.344;16.858;2023-07-09T05:27:31;6.30;;;4.20;;
47155;SDS011;32908;52.344;16.858;2023-07-09T05:30:02;6.50;;;3.90;;
47155;SDS011;32908;52.344;16.858;2023-07-09T05:32:34;6.70;;;4.20;;
47155;SDS011;32908;52.344;16.858;2023-07-09T05:35:07;6.50;;;4.30;;
47155;SDS011;32908;52.344;16.858;2023-07-09T05:37:38;6.80;;;4.10;;
47155;SDS011;32908;52.344;16.858;2023-07-09T05:40:10;6.00;;;3.80;;
47155;SDS011;32908;52.344;16.858;2023-07-09T05:42:40;5.10;;;3.90;;
47155;SDS011;32908;52.344;16.858;2023-07-09T05:45:11;5.40;;;4.20;;
47155;SDS011;32908;52.344;16.858;2023-07-09T05:47:43;8.50;;;4.00;;
47155;SDS011;32908;52.344;16.858;2023-07-09T05:50:14;7.90;;;3.70;;
47155;SDS011;32908;52.344;16.858;2023-07-09T05:52:44;6.90;;;4.40;;
47155;SDS011;32908;52.344;16.858;2023-07-09T05:55:16;10.90;;;3.50;;
47155;SDS011;32908;52.344;16.858;2023-07-09T05:57:46;8.90;;;3.90;;
47155;SDS011;32908;52.344;16.858;2023-07-09T06:00:18;5.10;;;3.50;;
47155;SDS011;32908;52.344;16.858;2023-07-09T06:02:49;5.20;;;3.50;;
47155;SDS011;32908;52.344;16.858;2023-07-09T06:05:20;4.70;;;3.30;;
47155;SDS011;32908;52.344;16.858;2023-07-09T06:07:50;7.20;;;3.60;;
47155;SDS011;32908;52.344;16.858;2023-07-09T06:10:21;5.80;;;3.00;;
47155;SDS011;32908;52.344;16.858;2023-07-09T06:12:52;4.80;;;2.90;;
47155;SDS011;32908;52.344;16.858;2023-07-09T06:15:22;4.80;;;3.10;;
47155;SDS011;32908;52.344;16.858;2023-07-09T06:17:53;7.10;;;3.10;;
47155;SDS011;32908;52.344;16.858;2023-07-09T06:20:24;6.00;;;3.00;;
47155;SDS011;32908;52.344;16.858;2023-07-09T06:22:55;6.50;;;2.90;;
47155;SDS011;32908;52.344;16.858;2023-07-09T06:25:25;3.40;;;2.30;;
47155;SDS011;32908;52.344;16.858;2023-07-09T06:27:56;3.20;;;2.70;;
47155;SDS011;32908;52.344;16.858;2023-07-09T06:30:27;5.00;;;2.50;;
47155;SDS011;32908;52.344;16.858;2023-07-09T06:32:58;3.00;;;2.50;;
47155;SDS011;32908;52.344;16.858;2023-07-09T06:35:28;3.80;;;2.40;;
47155;SDS011;32908;52.344;16.858;2023-07-09T06:37:59;4.50;;;2.50;;
47155;SDS011;32908;52.344;16.858;2023-07-09T06:40:30;4.80;;;2.70;;
47155;SDS011;32908;52.344;16.858;2023-07-09T06:43:01;5.20;;;2.30;;
47155;SDS011;32908;52.344;16.858;2023-07-09T06:45:31;4.40;;;2.50;;
47155;SDS011;32908;52.344;16.858;2023-07-09T06:48:02;4.60;;;2.70;;
47155;SDS011;32908;52.344;16.858;2023-07-09T06:50:34;3.80;;;2.50;;
47155;SDS011;32908;52.344;16.858;2023-07-09T06:53:05;6.10;;;2.80;;
47155;SDS011;32908;52.344;16.858;2023-07-09T06:55:37;4.50;;;2.10;;
47155;SDS011;32908;52.344;16.858;2023-07-09T07:00:41;3.60;;;2.60;;
47155;SDS011;32908;52.344;16.858;2023-07-09T07:03:12;3.50;;;2.30;;
47155;SDS011;32908;52.344;16.858;2023-07-09T07:05:44;4.70;;;2.60;;
47155;SDS011;32908;52.344;16.858;2023-07-09T07:08:17;3.20;;;2.00;;
47155;SDS011;32908;52.344;16.858;2023-07-09T07:10:50;2.50;;;2.30;;
47155;SDS011;32908;52.344;16.858;2023-07-09T07:13:29;3.60;;;2.10;;
47155;SDS011;32908;52.344;16.858;2023-07-09T07:16:01;3.70;;;2.20;;
47155;SDS011;32908;52.344;16.858;2023-07-09T07:18:33;5.00;;;2.00;;
47155;SDS011;32908;52.344;16.858;2023-07-09T07:21:04;4.10;;;2.10;;
47155;SDS011;32908;52.344;16.858;2023-07-09T07:23:35;3.80;;;2.00;;
47155;SDS011;32908;52.344;16.858;2023-07-09T07:26:05;6.10;;;2.20;;
47155;SDS011;32908;52.344;16.858;2023-07-09T07:28:36;4.60;;;2.00;;
47155;SDS011;32908;52.344;16.858;2023-07-09T07:31:07;3.50;;;2.50;;
47155;SDS011;32908;52.344;16.858;2023-07-09T07:33:39;6.30;;;2.10;;
47155;SDS011;32908;52.344;16.858;2023-07-09T07:36:10;3.30;;;2.40;;
47155;SDS011;32908;52.344;16.858;2023-07-09T07:38:41;4.20;;;2.10;;
47155;SDS011;32908;52.344;16.858;2023-07-09T07:41:12;7.00;;;2.80;;
47155;SDS011;32908;52.344;16.858;2023-07-09T07:43:42;6.20;;;2.10;;
47155;SDS011;32908;52.344;16.858;2023-07-09T07:46:13;3.80;;;2.30;;
47155;SDS011;32908;52.344;16.858;2023-07-09T07:48:43;3.90;;;2.00;;
47155;SDS011;32908;52.344;16.858;2023-07-09T07:51:14;5.20;;;2.70;;
47155;SDS011;32908;52.344;16.858;2023-07-09T07:53:45;4.50;;;1.90;;
47155;SDS011;32908;52.344;16.858;2023-07-09T07:56:16;3.30;;;2.30;;
47155;SDS011;32908;52.344;16.858;2023-07-09T07:58:47;3.00;;;2.30;;
47155;SDS011;32908;52.344;16.858;2023-07-09T08:01:18;3.90;;;1.90;;
47155;SDS011;32908;52.344;16.858;2023-07-09T08:03:48;3.10;;;2.10;;
47155;SDS011;32908;52.344;16.858;2023-07-09T08:06:19;4.10;;;2.30;;
47155;SDS011;32908;52.344;16.858;2023-07-09T08:08:50;2.90;;;2.10;;
47155;SDS011;32908;52.344;16.858;2023-07-09T08:11:20;2.70;;;2.00;;
47155;SDS011;32908;52.344;16.858;2023-07-09T08:13:51;3.20;;;2.10;;
47155;SDS011;32908;52.344;16.858;2023-07-09T08:16:22;3.70;;;2.10;;
47155;SDS011;32908;52.344;16.858;2023-07-09T08:18:53;2.00;;;1.80;;
47155;SDS011;32908;52.344;16.858;2023-07-09T08:21:23;2.20;;;1.90;;
47155;SDS011;32908;52.344;16.858;2023-07-09T08:23:54;4.20;;;2.50;;
47155;SDS011;32908;52.344;16.858;2023-07-09T08:26:25;3.10;;;2.00;;
47155;SDS011;32908;52.344;16.858;2023-07-09T08:28:55;5.20;;;2.10;;
47155;SDS011;32908;52.344;16.858;2023-07-09T08:31:26;3.80;;;2.10;;
47155;SDS011;32908;52.344;16.858;2023-07-09T08:33:56;6.40;;;2.20;;
47155;SDS011;32908;52.344;16.858;2023-07-09T08:36:27;3.60;;;2.20;;
47155;SDS011;32908;52.344;16.858;2023-07-09T08:38:58;2.80;;;2.10;;
47155;SDS011;32908;52.344;16.858;2023-07-09T08:41:35;3.50;;;2.00;;
47155;SDS011;32908;52.344;16.858;2023-07-09T08:44:12;3.90;;;2.10;;
47155;SDS011;32908;52.344;16.858;2023-07-09T08:46:51;2.70;;;2.10;;
47155;SDS011;32908;52.344;16.858;2023-07-09T08:49:37;3.70;;;1.80;;
47155;SDS011;32908;52.344;16.858;2023-07-09T08:52:12;3.00;;;2.10;;
47155;SDS011;32908;52.344;16.858;2023-07-09T08:54:57;3.90;;;2.10;;
47155;SDS011;32908;52.344;16.858;2023-07-09T08:57:34;4.60;;;2.10;;
47155;SDS011;32908;52.344;16.858;2023-07-09T09:00:07;2.20;;;1.70;;
47155;SDS011;32908;52.344;16.858;2023-07-09T09:02:46;2.60;;;2.10;;
47155;SDS011;32908;52.344;16.858;2023-07-09T09:05:20;2.70;;;2.20;;
47155;SDS011;32908;52.344;16.858;2023-07-09T09:07:54;3.80;;;2.00;;
47155;SDS011;32908;52.344;16.858;2023-07-09T09:10:28;5.10;;;2.10;;
47155;SDS011;32908;52.344;16.858;2023-07-09T09:15:43;3.40;;;1.80;;
47155;SDS011;32908;52.344;16.858;2023-07-09T09:18:20;3.60;;;1.80;;
47155;SDS011;32908;52.344;16.858;2023-07-09T09:20:55;3.90;;;1.80;;
47155;SDS011;32908;52.344;16.858;2023-07-09T09:23:40;3.40;;;2.10;;
47155;SDS011;32908;52.344;16.858;2023-07-09T09:26:14;2.50;;;1.70;;
47155;SDS011;32908;52.344;16.858;2023-07-09T09:28:47;2.50;;;1.80;;
47155;SDS011;32908;52.344;16.858;2023-07-09T09:31:18;2.00;;;1.70;;
47155;SDS011;32908;52.344;16.858;2023-07-09T09:33:49;4.30;;;1.80;;
47155;SDS011;32908;52.344;16.858;2023-07-09T09:36:20;3.30;;;2.00;;
47155;SDS011;32908;52.344;16.858;2023-07-09T09:38:52;4.50;;;2.00;;
47155;SDS011;32908;52.344;16.858;2023-07-09T09:41:24;2.60;;;1.80;;
47155;SDS011;32908;52.344;16.858;2023-07-09T09:43:59;2.20;;;1.60;;
47155;SDS011;32908;52.344;16.858;2023-07-09T09:46:31;2.50;;;2.10;;
47155;SDS011;32908;52.344;16.858;2023-07-09T09:49:02;2.50;;;2.00;;
47155;SDS011;32908;52.344;16.858;2023-07-09T09:51:39;2.70;;;1.90;;
47155;SDS011;32908;52.344;16.858;2023-07-09T09:54:14;2.20;;;1.70;;
47155;SDS011;32908;52.344;16.858;2023-07-09T09:56:47;4.30;;;1.80;;
47155;SDS011;32908;52.344;16.858;2023-07-09T09:59:21;2.30;;;1.80;;
47155;SDS011;32908;52.344;16.858;2023-07-09T10:02:00;4.60;;;1.60;;
47155;SDS011;32908;52.344;16.858;2023-07-09T10:04:34;2.10;;;1.70;;
47155;SDS011;32908;52.344;16.858;2023-07-09T10:07:05;2.90;;;2.10;;
47155;SDS011;32908;52.344;16.858;2023-07-09T10:09:41;2.20;;;2.00;;
47155;SDS011;32908;52.344;16.858;2023-07-09T10:12:19;2.50;;;1.60;;
47155;SDS011;32908;52.344;16.858;2023-07-09T10:15:05;2.10;;;1.70;;
47155;SDS011;32908;52.344;16.858;2023-07-09T10:17:47;4.00;;;2.10;;
47155;SDS011;32908;52.344;16.858;2023-07-09T10:20:23;2.30;;;1.90;;
47155;SDS011;32908;52.344;16.858;2023-07-09T10:23:00;3.80;;;1.90;;
47155;SDS011;32908;52.344;16.858;2023-07-09T10:25:39;2.20;;;1.80;;
47155;SDS011;32908;52.344;16.858;2023-07-09T10:28:22;3.50;;;2.10;;
47155;SDS011;32908;52.344;16.858;2023-07-09T10:31:02;1.60;;;1.30;;
47155;SDS011;32908;52.344;16.858;2023-07-09T10:33:43;2.70;;;1.80;;
47155;SDS011;32908;52.344;16.858;2023-07-09T10:36:23;2.20;;;1.70;;
47155;SDS011;32908;52.344;16.858;2023-07-09T10:39:00;2.20;;;1.80;;
47155;SDS011;32908;52.344;16.858;2023-07-09T10:41:33;6.90;;;2.00;;
47155;SDS011;32908;52.344;16.858;2023-07-09T10:44:06;3.20;;;1.80;;
47155;SDS011;32908;52.344;16.858;2023-07-09T10:46:45;5.30;;;2.10;;
47155;SDS011;32908;52.344;16.858;2023-07-09T10:49:17;4.10;;;2.00;;
47155;SDS011;32908;52.344;16.858;2023-07-09T10:51:48;3.30;;;1.80;;
47155;SDS011;32908;52.344;16.858;2023-07-09T10:54:22;3.70;;;1.80;;
47155;SDS011;32908;52.344;16.858;2023-07-09T10:56:58;2.70;;;1.60;;
47155;SDS011;32908;52.344;16.858;2023-07-09T10:59:33;2.00;;;1.80;;
47155;SDS011;32908;52.344;16.858;2023-07-09T11:02:21;3.60;;;1.50;;
47155;SDS011;32908;52.344;16.858;2023-07-09T11:04:53;3.80;;;1.60;;
47155;SDS011;32908;52.344;16.858;2023-07-09T11:07:27;4.00;;;1.50;;
47155;SDS011;32908;52.344;16.858;2023-07-09T11:10:01;1.80;;;1.60;;
47155;SDS011;32908;52.344;16.858;2023-07-09T11:12:34;4.90;;;1.70;;
47155;SDS011;32908;52.344;16.858;2023-07-09T11:15:08;1.70;;;1.60;;
47155;SDS011;32908;52.344;16.858;2023-07-09T11:17:43;2.00;;;1.70;;
47155;SDS011;32908;52.344;16.858;2023-07-09T11:20:18;2.30;;;1.50;;
47155;SDS011;32908;52.344;16.858;2023-07-09T11:22:59;2.00;;;1.40;;
47155;SDS011;32908;52.344;16.858;2023-07-09T11:25:40;5.20;;;1.60;;
47155;SDS011;32908;52.344;16.858;2023-07-09T11:28:12;12.40;;;2.10;;
47155;SDS011;32908;52.344;16.858;2023-07-09T11:30:47;2.30;;;1.80;;
47155;SDS011;32908;52.344;16.858;2023-07-09T11:33:20;6.30;;;2.20;;
47155;SDS011;32908;52.344;16.858;2023-07-09T11:36:06;2.90;;;1.50;;
47155;SDS011;32908;52.344;16.858;2023-07-09T11:38:40;4.10;;;1.90;;
47155;SDS011;32908;52.344;16.858;2023-07-09T11:44:14;3.00;;;1.60;;
47155;SDS011;32908;52.344;16.858;2023-07-09T11:49:50;2.10;;;1.60;;
47155;SDS011;32908;52.344;16.858;2023-07-09T11:52:24;4.10;;;1.50;;
47155;SDS011;32908;52.344;16.858;2023-07-09T11:54:57;3.40;;;1.50;;
47155;SDS011;32908;52.344;16.858;2023-07-09T11:57:32;2.30;;;1.40;;
47155;SDS011;32908;52.344;16.858;2023-07-09T12:00:02;1.10;;;1.00;;
47155;SDS011;32908;52.344;16.858;2023-07-09T12:02:36;1.60;;;1.50;;
47155;SDS011;32908;52.344;16.858;2023-07-09T12:05:07;1.50;;;1.40;;
47155;SDS011;32908;52.344;16.858;2023-07-09T12:07:38;2.50;;;1.60;;
47155;SDS011;32908;52.344;16.858;2023-07-09T12:10:15;1.80;;;1.60;;
47155;SDS011;32908;52.344;16.858;2023-07-09T12:12:53;3.00;;;1.40;;
47155;SDS011;32908;52.344;16.858;2023-07-09T12:15:25;2.30;;;1.70;;
47155;SDS011;32908;52.344;16.858;2023-07-09T12:17:58;1.70;;;1.30;;
47155;SDS011;32908;52.344;16.858;2023-07-09T12:20:31;1.40;;;1.30;;
47155;SDS011;32908;52.344;16.858;2023-07-09T12:23:10;4.10;;;1.60;;
47155;SDS011;32908;52.344;16.858;2023-07-09T12:25:46;1.90;;;1.10;;
47155;SDS011;32908;52.344;16.858;2023-07-09T12:28:18;2.30;;;1.40;;
47155;SDS011;32908;52.344;16.858;2023-07-09T12:30:50;4.80;;;1.60;;
47155;SDS011;32908;52.344;16.858;2023-07-09T12:33:22;2.60;;;1.70;;
47155;SDS011;32908;52.344;16.858;2023-07-09T12:35:55;1.70;;;1.30;;
47155;SDS011;32908;52.344;16.858;2023-07-09T12:38:28;1.70;;;1.30;;
47155;SDS011;32908;52.344;16.858;2023-07-09T12:41:01;2.10;;;1.50;;
47155;SDS011;32908;52.344;16.858;2023-07-09T12:43:33;1.50;;;1.30;;
47155;SDS011;32908;52.344;16.858;2023-07-09T12:46:04;3.10;;;1.40;;
47155;SDS011;32908;52.344;16.858;2023-07-09T12:48:35;2.30;;;1.40;;
47155;SDS011;32908;52.344;16.858;2023-07-09T12:51:08;1.50;;;1.40;;
47155;SDS011;32908;52.344;16.858;2023-07-09T12:53:38;1.90;;;1.40;;
47155;SDS011;32908;52.344;16.858;2023-07-09T12:56:10;1.80;;;1.50;;
47155;SDS011;32908;52.344;16.858;2023-07-09T12:58:42;2.10;;;1.50;;
47155;SDS011;32908;52.344;16.858;2023-07-09T13:01:15;2.50;;;1.50;;
47155;SDS011;32908;52.344;16.858;2023-07-09T13:03:53;1.40;;;1.30;;
47155;SDS011;32908;52.344;16.858;2023-07-09T13:06:26;1.60;;;1.20;;
47155;SDS011;32908;52.344;16.858;2023-07-09T13:08:58;3.10;;;1.70;;
47155;SDS011;32908;52.344;16.858;2023-07-09T13:11:33;1.20;;;1.10;;
47155;SDS011;32908;52.344;16.858;2023-07-09T13:14:05;1.40;;;1.30;;
47155;SDS011;32908;52.344;16.858;2023-07-09T13:16:41;1.60;;;1.10;;
47155;SDS011;32908;52.344;16.858;2023-07-09T13:19:12;1.30;;;1.20;;
47155;SDS011;32908;52.344;16.858;2023-07-09T13:21:43;2.00;;;1.50;;
47155;SDS011;32908;52.344;16.858;2023-07-09T13:24:15;1.30;;;1.20;;
47155;SDS011;32908;52.344;16.858;2023-07-09T13:26:49;1.30;;;1.20;;
47155;SDS011;32908;52.344;16.858;2023-07-09T13:29:20;1.50;;;1.10;;
47155;SDS011;32908;52.344;16.858;2023-07-09T13:31:51;1.40;;;1.30;;
47155;SDS011;32908;52.344;16.858;2023-07-09T13:34:23;1.80;;;1.40;;
47155;SDS011;32908;52.344;16.858;2023-07-09T13:36:55;4.80;;;1.20;;
47155;SDS011;32908;52.344;16.858;2023-07-09T13:39:26;4.10;;;1.30;;
47155;SDS011;32908;52.344;16.858;2023-07-09T13:41:56;3.40;;;1.20;;
47155;SDS011;32908;52.344;16.858;2023-07-09T13:44:28;1.40;;;1.30;;
47155;SDS011;32908;52.344;16.858;2023-07-09T13:46:59;1.90;;;1.30;;
47155;SDS011;32908;52.344;16.858;2023-07-09T13:49:30;1.50;;;1.40;;
47155;SDS011;32908;52.344;16.858;2023-07-09T13:52:03;1.80;;;1.30;;
47155;SDS011;32908;52.344;16.858;2023-07-09T13:54:34;1.70;;;1.40;;
47155;SDS011;32908;52.344;16.858;2023-07-09T13:57:06;1.80;;;1.40;;
47155;SDS011;32908;52.344;16.858;2023-07-09T13:59:40;1.70;;;1.50;;
47155;SDS011;32908;52.344;16.858;2023-07-09T14:02:16;1.80;;;1.40;;
47155;SDS011;32908;52.344;16.858;2023-07-09T14:04:51;4.60;;;1.40;;
47155;SDS011;32908;52.344;16.858;2023-07-09T14:07:26;1.40;;;1.30;;
47155;SDS011;32908;52.344;16.858;2023-07-09T14:09:59;1.30;;;1.20;;
47155;SDS011;32908;52.344;16.858;2023-07-09T14:12:31;1.60;;;1.40;;
47155;SDS011;32908;52.344;16.858;2023-07-09T14:15:05;2.50;;;1.50;;
47155;SDS011;32908;52.344;16.858;2023-07-09T14:17:42;1.60;;;1.40;;
47155;SDS011;32908;52.344;16.858;2023-07-09T14:20:13;1.60;;;1.50;;
47155;SDS011;32908;52.344;16.858;2023-07-09T14:22:45;1.70;;;1.40;;
47155;SDS011;32908;52.344;16.858;2023-07-09T14:25:17;2.90;;;1.80;;
47155;SDS011;32908;52.344;16.858;2023-07-09T14:27:49;2.10;;;1.70;;
47155;SDS011;32908;52.344;16.858;2023-07-09T14:30:22;1.60;;;1.10;;
47155;SDS011;32908;52.344;16.858;2023-07-09T14:32:53;2.40;;;1.30;;
47155;SDS011;32908;52.344;16.858;2023-07-09T14:35:25;2.20;;;1.40;;
47155;SDS011;32908;52.344;16.858;2023-07-09T14:37:56;2.90;;;1.40;;
47155;SDS011;32908;52.344;16.858;2023-07-09T14:40:28;1.60;;;1.40;;
47155;SDS011;32908;52.344;16.858;2023-07-09T14:42:59;3.10;;;1.40;;
47155;SDS011;32908;52.344;16.858;2023-07-09T14:45:30;1.60;;;1.50;;
47155;SDS011;32908;52.344;16.858;2023-07-09T14:48:04;2.70;;;1.40;;
47155;SDS011;32908;52.344;16.858;2023-07-09T14:50:40;2.70;;;1.40;;
47155;SDS011;32908;52.344;16.858;2023-07-09T14:53:14;1.80;;;1.40;;
47155;SDS011;32908;52.344;16.858;2023-07-09T14:55:46;1.60;;;1.40;;
47155;SDS011;32908;52.344;16.858;2023-07-09T14:58:18;3.80;;;1.70;;
47155;SDS011;32908;52.344;16.858;2023-07-09T15:00:49;2.70;;;1.30;;
47155;SDS011;32908;52.344;16.858;2023-07-09T15:03:21;2.70;;;1.40;;
47155;SDS011;32908;52.344;16.858;2023-07-09T15:05:54;1.90;;;1.30;;
47155;SDS011;32908;52.344;16.858;2023-07-09T15:08:25;2.00;;;1.70;;
47155;SDS011;32908;52.344;16.858;2023-07-09T15:10:56;1.40;;;1.30;;
47155;SDS011;32908;52.344;16.858;2023-07-09T15:13:29;2.70;;;1.60;;
47155;SDS011;32908;52.344;16.858;2023-07-09T15:16:00;2.00;;;1.60;;
47155;SDS011;32908;52.344;16.858;2023-07-09T15:18:32;2.30;;;1.80;;